createdAt,value
2022-10-23T00:01:47.335Z,30.69
2022-10-23T00:04:21.699Z,30.74
2022-10-23T00:06:50.050Z,30.73
2022-10-23T00:09:21.535Z,30.69
2022-10-23T00:11:50.895Z,30.69
2022-10-23T00:14:21.687Z,30.70
2022-10-23T00:16:50.833Z,30.63
2022-10-23T00:19:18.905Z,30.42
2022-10-23T00:21:46.985Z,30.33
2022-10-23T00:24:15.278Z,30.31
2022-10-23T00:26:43.443Z,30.34
2022-10-23T00:29:11.748Z,30.41
2022-10-23T00:31:40.107Z,30.36
2022-10-23T00:34:08.478Z,30.35
2022-10-23T00:36:37.936Z,30.29
2022-10-23T00:39:06.585Z,30.23
2022-10-23T00:41:35.275Z,30.38
2022-10-23T00:44:11.131Z,30.40
2022-10-23T00:46:39.613Z,30.39
2022-10-23T00:49:09.727Z,30.39
2022-10-23T00:51:47.922Z,30.48
2022-10-23T00:54:25.645Z,30.40
2022-10-23T00:56:59.143Z,30.35
2022-10-23T00:59:27.762Z,30.21
2022-10-23T01:01:56.166Z,30.08
2022-10-23T01:04:25.925Z,30.03
2022-10-23T01:07:31.762Z,29.89
2022-10-23T01:10:37.904Z,29.83
2022-10-23T01:13:14.269Z,29.73
2022-10-23T01:15:52.955Z,29.76
2022-10-23T01:18:44.811Z,29.85
2022-10-23T01:21:22.605Z,29.78
2022-10-23T01:23:56.678Z,29.74
2022-10-23T01:27:01.635Z,29.74
2022-10-23T01:29:49.179Z,29.68
2022-10-23T01:32:27.687Z,29.73
2022-10-23T01:35:01.592Z,29.85
2022-10-23T01:37:55.739Z,29.87
2022-10-23T01:40:47.561Z,29.90
2022-10-23T01:43:25.258Z,30.00
2022-10-23T01:46:01.387Z,29.86
2022-10-23T01:48:31.132Z,29.82
2022-10-23T01:51:03.609Z,29.88
2022-10-23T01:53:37.520Z,29.80
2022-10-23T01:56:12.184Z,29.68
2022-10-23T01:58:45.956Z,29.79
2022-10-23T02:01:16.628Z,29.72
2022-10-23T02:03:45.247Z,29.78
2022-10-23T02:06:13.453Z,29.83
2022-10-23T02:08:42.042Z,29.85
2022-10-23T02:11:15.743Z,29.75
2022-10-23T02:14:04.145Z,29.56
2022-10-23T02:16:55.392Z,29.50
2022-10-23T02:19:35.660Z,29.50
2022-10-23T02:22:32.987Z,29.49
2022-10-23T02:25:09.571Z,29.44
2022-10-23T02:27:43.114Z,29.39
2022-10-23T02:30:16.235Z,29.34
2022-10-23T02:32:53.840Z,29.33
2022-10-23T02:35:26.421Z,29.28
2022-10-23T02:37:59.515Z,29.22
2022-10-23T02:40:42.018Z,29.19
2022-10-23T02:43:21.985Z,29.19
2022-10-23T02:46:20.780Z,29.20
2022-10-23T02:48:57.227Z,29.20
2022-10-23T02:51:44.724Z,29.17
2022-10-23T02:54:22.700Z,29.22
2022-10-23T02:57:06.249Z,29.24
2022-10-23T02:59:34.207Z,29.18
2022-10-23T03:02:51.631Z,29.08
2022-10-23T03:05:28.607Z,29.17
2022-10-23T03:07:56.887Z,29.14
2022-10-23T03:10:25.375Z,29.06
2022-10-23T03:12:53.451Z,28.98
2022-10-23T03:15:21.421Z,28.97
2022-10-23T03:17:49.404Z,28.96
2022-10-23T03:20:18.086Z,28.98
2022-10-23T03:22:46.348Z,28.98
2022-10-23T03:25:14.852Z,28.92
2022-10-23T03:27:43.133Z,29.00
2022-10-23T03:30:11.415Z,29.12
2022-10-23T03:32:39.676Z,29.13
2022-10-23T03:35:08.595Z,29.08
2022-10-23T03:37:36.667Z,28.99
2022-10-23T03:40:05.257Z,28.73
2022-10-23T03:42:33.433Z,28.75
2022-10-23T03:45:01.405Z,28.77
2022-10-23T03:47:30.401Z,28.75
2022-10-23T03:49:58.579Z,28.71
2022-10-23T03:52:26.558Z,28.66
2022-10-23T03:54:54.529Z,28.64
2022-10-23T03:57:22.601Z,28.68
2022-10-23T03:59:50.679Z,28.66
2022-10-23T04:02:18.945Z,28.65
2022-10-23T04:04:47.140Z,28.60
2022-10-23T04:07:15.419Z,28.61
2022-10-23T04:09:43.410Z,28.52
2022-10-23T04:12:11.466Z,28.57
2022-10-23T04:14:39.622Z,28.56
2022-10-23T04:17:07.938Z,28.56
2022-10-23T04:19:36.105Z,28.58
2022-10-23T04:22:04.080Z,28.60
2022-10-23T04:24:32.257Z,28.53
2022-10-23T04:27:00.538Z,28.46
2022-10-23T04:29:28.920Z,28.46
2022-10-23T04:31:57.207Z,28.38
2022-10-23T04:34:25.181Z,28.32
2022-10-23T04:36:53.154Z,28.29
2022-10-23T04:39:21.327Z,28.24
2022-10-23T04:41:49.202Z,28.23
2022-10-23T04:44:17.176Z,28.27
2022-10-23T04:46:45.045Z,28.30
2022-10-23T04:49:13.016Z,28.29
2022-10-23T04:51:40.933Z,28.29
2022-10-23T04:54:08.759Z,28.32
2022-10-23T04:56:36.841Z,28.33
2022-10-23T05:01:33.992Z,28.28
2022-10-23T05:04:02.608Z,28.29
2022-10-23T05:06:30.883Z,28.32
2022-10-23T05:08:58.858Z,28.38
2022-10-23T05:11:26.931Z,28.36
2022-10-23T05:13:54.901Z,28.39
2022-10-23T05:16:36.588Z,28.37
2022-10-23T05:19:07.366Z,28.41
2022-10-23T05:21:38.575Z,28.36
2022-10-23T05:24:07.061Z,28.26
2022-10-23T05:26:35.037Z,28.28
2022-10-23T05:29:03.551Z,28.30
2022-10-23T05:31:34.765Z,28.34
2022-10-23T05:34:02.690Z,28.34
2022-10-23T05:36:32.067Z,28.31
2022-10-23T05:38:59.944Z,28.33
2022-10-23T05:41:27.889Z,28.28
2022-10-23T05:43:56.071Z,28.26
2022-10-23T05:46:24.042Z,28.23
2022-10-23T05:48:52.896Z,28.22
2022-10-23T05:51:21.938Z,28.23
2022-10-23T05:53:50.881Z,28.17
2022-10-23T05:56:19.621Z,28.18
2022-10-23T05:58:47.696Z,28.19
2022-10-23T06:01:15.826Z,28.18
2022-10-23T06:03:43.746Z,28.19
2022-10-23T06:06:12.334Z,28.15
2022-10-23T06:08:40.307Z,28.14
2022-10-23T06:11:09.949Z,28.10
2022-10-23T06:13:38.512Z,28.03
2022-10-23T06:16:15.281Z,27.86
2022-10-23T06:18:44.285Z,27.77
2022-10-23T06:21:13.171Z,27.77
2022-10-23T06:23:43.191Z,27.68
2022-10-23T06:26:13.866Z,27.66
2022-10-23T06:28:41.948Z,27.72
2022-10-23T06:31:13.571Z,27.79
2022-10-23T06:33:42.045Z,27.82
2022-10-23T06:36:10.122Z,27.78
2022-10-23T06:38:39.181Z,27.79
2022-10-23T06:41:19.533Z,27.70
2022-10-23T06:43:49.915Z,27.70
2022-10-23T06:46:19.217Z,27.70
2022-10-23T06:48:47.238Z,27.71
2022-10-23T06:51:17.928Z,27.68
2022-10-23T06:53:46.301Z,27.71
2022-10-23T06:56:14.865Z,27.72
2022-10-23T06:58:42.813Z,27.77
2022-10-23T07:01:13.125Z,27.81
2022-10-23T07:03:41.095Z,27.91
2022-10-23T07:06:10.985Z,27.98
2022-10-23T07:08:38.977Z,27.95
2022-10-23T07:11:09.381Z,28.02
2022-10-23T07:13:38.797Z,28.21
2022-10-23T07:16:19.301Z,28.27
2022-10-23T07:18:48.881Z,28.25
2022-10-23T07:21:17.036Z,28.33
2022-10-23T07:23:44.912Z,28.50
2022-10-23T07:26:15.825Z,28.59
2022-10-23T07:28:45.947Z,28.63
2022-10-23T07:31:14.661Z,28.66
2022-10-23T07:33:42.738Z,28.77
2022-10-23T07:36:10.820Z,29.02
2022-10-23T07:38:39.096Z,29.05
2022-10-23T07:41:09.045Z,29.08
2022-10-23T07:43:40.054Z,29.23
2022-10-23T07:46:08.648Z,29.39
2022-10-23T07:48:37.946Z,29.48
2022-10-23T07:51:13.862Z,29.57
2022-10-23T07:53:43.308Z,29.86
2022-10-23T07:56:37.490Z,30.06
2022-10-23T07:59:05.427Z,30.23
2022-10-23T08:01:40.737Z,30.28
2022-10-23T08:04:10.617Z,30.50
2022-10-23T08:06:38.689Z,30.62
2022-10-23T08:09:07.380Z,30.74
2022-10-23T08:11:35.890Z,30.79
2022-10-23T08:14:06.606Z,30.88
2022-10-23T08:16:37.438Z,30.98
2022-10-23T08:19:07.203Z,31.10
2022-10-23T08:21:35.228Z,31.20
2022-10-23T08:24:03.734Z,31.32
2022-10-23T08:26:32.300Z,31.46
2022-10-23T08:29:00.990Z,31.60
2022-10-23T08:31:29.095Z,31.75
2022-10-23T08:33:57.085Z,31.89
2022-10-23T08:36:27.666Z,31.98
2022-10-23T08:38:57.900Z,32.22
2022-10-23T08:41:28.123Z,32.27
2022-10-23T08:44:24.762Z,32.16
2022-10-23T08:47:08.419Z,32.22
2022-10-23T08:49:58.057Z,32.26
2022-10-23T08:52:37.412Z,32.40
2022-10-23T08:55:35.994Z,32.32
2022-10-23T08:58:27.118Z,32.33
2022-10-23T09:00:55.342Z,32.41
2022-10-23T09:03:23.513Z,32.34
2022-10-23T09:06:03.510Z,32.13
2022-10-23T09:08:59.474Z,32.16
2022-10-23T09:11:59.990Z,31.97
2022-10-23T09:14:30.623Z,32.01
2022-10-23T09:17:17.056Z,31.78
2022-10-23T09:19:46.330Z,31.55
2022-10-23T09:22:14.395Z,31.63
2022-10-23T09:24:44.212Z,31.66
2022-10-23T09:27:17.612Z,31.83
2022-10-23T09:29:51.829Z,31.94
2022-10-23T09:32:20.574Z,31.92
2022-10-23T09:34:55.144Z,32.06
2022-10-23T09:37:23.117Z,32.07
2022-10-23T09:40:24.682Z,32.22
2022-10-23T09:43:01.633Z,32.17
2022-10-23T09:45:31.881Z,32.25
2022-10-23T09:48:12.974Z,32.34
2022-10-23T09:51:02.396Z,32.27
2022-10-23T09:53:33.230Z,32.42
2022-10-23T09:56:24.638Z,32.53
2022-10-23T09:59:15.808Z,32.80
2022-10-23T10:01:53.386Z,33.00
2022-10-23T10:04:36.379Z,33.18
2022-10-23T10:07:15.786Z,33.07
2022-10-23T10:09:43.863Z,33.16
2022-10-23T10:12:17.770Z,33.23
2022-10-23T10:15:09.997Z,33.34
2022-10-23T10:17:50.975Z,33.21
2022-10-23T10:21:08.777Z,33.24
2022-10-23T10:23:47.395Z,33.32
2022-10-23T10:26:34.508Z,33.34
2022-10-23T10:29:21.415Z,33.28
2022-10-23T10:32:22.438Z,33.06
2022-10-23T10:35:11.898Z,32.89
2022-10-23T10:37:48.615Z,33.15
2022-10-23T10:40:38.962Z,33.25
2022-10-23T10:43:29.366Z,33.12
2022-10-23T10:46:20.765Z,33.11
2022-10-23T10:49:01.362Z,33.15
2022-10-23T10:51:59.473Z,33.30
2022-10-23T10:54:30.412Z,33.48
2022-10-23T10:57:01.047Z,33.54
2022-10-23T10:59:38.848Z,33.53
2022-10-23T11:02:29.125Z,33.72
2022-10-23T11:05:29.156Z,33.48
2022-10-23T11:08:07.159Z,33.53
2022-10-23T11:10:39.301Z,33.66
2022-10-23T11:13:26.517Z,33.88
2022-10-23T11:16:04.006Z,33.83
2022-10-23T11:18:33.890Z,33.99
2022-10-23T11:21:32.497Z,34.07
2022-10-23T11:24:19.404Z,34.08
2022-10-23T11:27:25.236Z,34.04
2022-10-23T11:30:26.265Z,34.42
2022-10-23T11:33:34.556Z,34.46
2022-10-23T11:36:18.702Z,34.64
2022-10-23T11:38:50.016Z,34.69
2022-10-23T11:41:25.310Z,34.95
2022-10-23T11:43:57.459Z,35.00
2022-10-23T11:46:25.538Z,35.13
2022-10-23T11:48:55.560Z,35.14
2022-10-23T11:51:40.823Z,35.21
2022-10-23T11:54:11.585Z,35.35
2022-10-23T11:56:54.415Z,35.53
2022-10-23T11:59:26.029Z,35.59
2022-10-23T12:01:57.257Z,35.55
2022-10-23T12:04:33.650Z,35.12
2022-10-23T12:07:13.690Z,35.17
2022-10-23T12:09:45.446Z,35.13
2022-10-23T12:12:16.841Z,34.56
2022-10-23T12:14:50.199Z,34.38
2022-10-23T12:17:24.107Z,34.40
2022-10-23T12:19:55.079Z,34.11
2022-10-23T12:22:32.293Z,34.14
2022-10-23T12:25:07.459Z,33.97
2022-10-23T12:27:46.052Z,33.83
2022-10-23T12:30:29.207Z,34.11
2022-10-23T12:33:22.127Z,34.30
2022-10-23T12:35:59.026Z,33.89
2022-10-23T12:38:33.947Z,34.27
2022-10-23T12:41:13.563Z,34.40
2022-10-23T12:43:45.845Z,34.39
2022-10-23T12:46:33.331Z,34.17
2022-10-23T12:49:03.789Z,34.30
2022-10-23T12:51:34.418Z,34.37
2022-10-23T12:54:03.558Z,33.95
2022-10-23T12:56:38.075Z,34.12
2022-10-23T12:59:18.431Z,34.21
2022-10-23T13:01:51.799Z,34.43
2022-10-23T13:04:33.319Z,34.45
2022-10-23T13:07:03.769Z,34.10
2022-10-23T13:09:39.900Z,33.88
2022-10-23T13:12:16.817Z,33.90
2022-10-23T13:15:17.537Z,33.73
2022-10-23T13:17:57.855Z,33.78
2022-10-23T13:20:37.389Z,34.11
2022-10-23T13:23:08.537Z,33.93
2022-10-23T13:25:39.309Z,33.63
2022-10-23T13:28:22.084Z,33.99
2022-10-23T13:30:59.371Z,33.88
2022-10-23T13:33:34.611Z,33.84
2022-10-23T13:36:07.616Z,33.67
2022-10-23T13:38:38.208Z,33.67
2022-10-23T13:41:11.762Z,33.53
2022-10-23T13:43:41.854Z,33.30
2022-10-23T13:46:24.842Z,33.04
2022-10-23T13:48:53.562Z,33.05
2022-10-23T13:51:24.464Z,33.03
2022-10-23T13:53:53.192Z,33.14
2022-10-23T13:56:23.246Z,33.00
2022-10-23T13:58:51.348Z,32.98
2022-10-23T14:01:28.292Z,32.92
2022-10-23T14:03:57.779Z,32.99
2022-10-23T14:06:26.056Z,33.04
2022-10-23T14:08:54.340Z,33.35
2022-10-23T14:11:22.721Z,33.14
2022-10-23T14:13:51.005Z,33.00
2022-10-23T14:16:20.717Z,32.89
2022-10-23T14:18:49.144Z,33.04
2022-10-23T14:21:20.718Z,33.12
2022-10-23T14:23:49.998Z,33.14
2022-10-23T14:26:21.012Z,33.07
2022-10-23T14:28:55.292Z,33.04
2022-10-23T14:31:23.706Z,32.82
2022-10-23T14:33:57.247Z,32.90
2022-10-23T14:36:30.917Z,32.90
2022-10-23T14:39:06.860Z,32.78
2022-10-23T14:41:35.249Z,32.75
2022-10-23T14:44:03.320Z,32.73
2022-10-23T14:46:31.397Z,32.74
2022-10-23T14:49:02.334Z,32.87
2022-10-23T14:51:30.829Z,32.94
2022-10-23T14:54:04.221Z,32.97
2022-10-23T14:56:35.527Z,32.94
2022-10-23T14:59:05.091Z,32.69
2022-10-23T15:01:36.731Z,32.48
2022-10-23T15:04:05.537Z,32.52
2022-10-23T15:06:35.090Z,32.46
2022-10-23T15:09:04.444Z,32.36
2022-10-23T15:11:33.173Z,32.33
2022-10-23T15:14:01.211Z,32.38
2022-10-23T15:16:29.286Z,32.16
2022-10-23T15:18:57.372Z,32.27
2022-10-23T15:21:25.542Z,32.35
2022-10-23T15:23:53.542Z,32.39
2022-10-23T15:26:22.207Z,32.24
2022-10-23T15:29:01.899Z,32.27
2022-10-23T15:31:29.922Z,32.15
2022-10-23T15:33:58.610Z,32.25
2022-10-23T15:36:27.301Z,32.39
2022-10-23T15:38:55.581Z,32.50
2022-10-23T15:41:32.047Z,32.49
2022-10-23T15:44:02.285Z,32.44
2022-10-23T15:46:30.762Z,32.39
2022-10-23T15:48:58.939Z,32.50
2022-10-23T15:51:27.628Z,32.62
2022-10-23T15:53:56.217Z,32.76
2022-10-23T15:56:24.807Z,32.83
2022-10-23T15:58:53.110Z,32.87
2022-10-23T16:01:21.217Z,32.85
2022-10-23T16:03:49.443Z,32.83
2022-10-23T16:06:19.404Z,32.69
2022-10-23T16:08:48.013Z,32.63
2022-10-23T16:11:18.305Z,32.67
2022-10-23T16:13:46.860Z,32.71
2022-10-23T16:16:16.472Z,32.76
2022-10-23T16:18:44.816Z,32.70
2022-10-23T16:21:22.174Z,32.66
2022-10-23T16:23:51.899Z,32.66
2022-10-23T16:26:20.849Z,32.70
2022-10-23T16:28:53.428Z,32.69
2022-10-23T16:31:24.930Z,32.74
2022-10-23T16:33:53.698Z,32.71
2022-10-23T16:36:21.956Z,32.80
2022-10-23T16:38:49.929Z,32.89
2022-10-23T16:41:18.208Z,32.95
2022-10-23T16:43:46.304Z,33.00
2022-10-23T16:46:17.936Z,33.01
2022-10-23T16:48:46.332Z,32.92
2022-10-23T16:51:20.341Z,32.92
2022-10-23T16:53:49.187Z,32.84
2022-10-23T16:56:20.502Z,32.83
2022-10-23T16:58:49.093Z,32.80
2022-10-23T17:01:21.572Z,32.80
2022-10-23T17:03:51.974Z,32.82
2022-10-23T17:06:23.632Z,32.85
2022-10-23T17:08:52.893Z,32.72
2022-10-23T17:11:23.859Z,32.62
2022-10-23T17:13:59.280Z,32.57
2022-10-23T17:16:33.843Z,32.48
2022-10-23T17:19:03.157Z,32.46
2022-10-23T17:21:34.893Z,32.44
2022-10-23T17:24:03.497Z,32.42
2022-10-23T17:26:32.084Z,32.32
2022-10-23T17:29:02.000Z,32.38
2022-10-23T17:31:33.079Z,32.43
2022-10-23T17:34:04.481Z,32.34
2022-10-23T17:36:35.542Z,32.29
2022-10-23T17:39:08.644Z,32.42
2022-10-23T17:41:37.320Z,32.28
2022-10-23T17:44:05.500Z,32.23
2022-10-23T17:46:33.577Z,32.27
2022-10-23T17:49:03.510Z,32.29
2022-10-23T17:51:35.438Z,32.29
2022-10-23T17:54:09.227Z,32.36
2022-10-23T17:56:38.058Z,32.32
2022-10-23T17:59:10.431Z,32.25
2022-10-23T18:01:38.803Z,32.21
2022-10-23T18:04:08.121Z,32.16
2022-10-23T18:06:42.500Z,32.13
2022-10-23T18:09:11.228Z,32.10
2022-10-23T18:11:45.610Z,32.11
2022-10-23T18:14:19.175Z,32.11
2022-10-23T18:16:48.151Z,32.07
2022-10-23T18:19:17.964Z,32.03
2022-10-23T18:21:47.469Z,32.01
2022-10-23T18:24:16.058Z,31.94
2022-10-23T18:26:44.343Z,31.94
2022-10-23T18:29:13.030Z,31.88
2022-10-23T18:31:41.512Z,31.86
2022-10-23T18:34:17.776Z,31.89
2022-10-23T18:36:46.606Z,31.92
2022-10-23T18:39:17.413Z,31.93
2022-10-23T18:41:46.201Z,31.76
2022-10-23T18:44:16.816Z,31.58
2022-10-23T18:46:47.031Z,31.54
2022-10-23T18:49:17.490Z,31.51
2022-10-23T18:51:45.916Z,31.44
2022-10-23T18:54:15.795Z,31.38
2022-10-23T18:56:44.485Z,31.37
2022-10-23T18:59:19.648Z,31.30
2022-10-23T19:01:48.737Z,31.33
2022-10-23T19:04:17.100Z,31.42
2022-10-23T19:06:46.501Z,31.69
2022-10-23T19:09:14.686Z,31.78
2022-10-23T19:11:43.892Z,31.81
2022-10-23T19:14:12.887Z,31.79
2022-10-23T19:16:49.693Z,31.84
2022-10-23T19:19:20.193Z,31.82
2022-10-23T19:21:49.551Z,31.82
2022-10-23T19:24:25.708Z,31.81
2022-10-23T19:26:54.957Z,31.81
2022-10-23T19:29:25.795Z,31.80
2022-10-23T19:31:54.212Z,31.82
2022-10-23T19:34:24.235Z,31.78
2022-10-23T19:36:54.229Z,31.81
2022-10-23T19:39:22.703Z,31.82
2022-10-23T19:41:50.679Z,31.84
2022-10-23T19:44:19.367Z,31.86
2022-10-23T19:46:48.671Z,31.88
2022-10-23T19:49:17.914Z,31.92
2022-10-23T19:51:50.970Z,31.89
2022-10-23T19:54:21.461Z,31.85
2022-10-23T19:56:49.786Z,31.84
2022-10-23T19:59:18.674Z,31.83
2022-10-23T20:01:48.998Z,31.85
2022-10-23T20:04:19.263Z,31.84
2022-10-23T20:06:47.515Z,31.78
2022-10-23T20:09:15.994Z,31.77
2022-10-23T20:11:44.170Z,31.79
2022-10-23T20:14:13.062Z,31.71
2022-10-23T20:16:43.084Z,31.68
2022-10-23T20:19:14.081Z,31.67
2022-10-23T20:21:44.810Z,31.63
2022-10-23T20:24:14.989Z,31.63
2022-10-23T20:26:45.621Z,31.62
2022-10-23T20:29:14.822Z,31.62
2022-10-23T20:31:43.528Z,31.58
2022-10-23T20:34:12.303Z,31.57
2022-10-23T20:36:46.946Z,31.53
2022-10-23T20:39:21.535Z,31.55
2022-10-23T20:41:49.632Z,31.50
2022-10-23T20:44:20.203Z,31.46
2022-10-23T20:46:49.571Z,31.52
2022-10-23T20:49:17.952Z,31.53
2022-10-23T20:51:46.071Z,31.51
2022-10-23T20:54:14.104Z,31.51
2022-10-23T20:56:42.385Z,31.44
2022-10-23T20:59:13.767Z,31.39
2022-10-23T21:01:44.705Z,31.39
2022-10-23T21:04:14.037Z,31.36
2022-10-23T21:06:57.642Z,31.38
2022-10-23T21:09:30.991Z,31.33
2022-10-23T21:11:58.856Z,31.31
2022-10-23T21:14:26.855Z,31.30
2022-10-23T21:16:54.837Z,31.27
2022-10-23T21:19:22.811Z,31.10
2022-10-23T21:21:50.776Z,31.11
2022-10-23T21:24:18.838Z,31.11
2022-10-23T21:26:46.835Z,31.10
2022-10-23T21:29:19.371Z,31.02
2022-10-23T21:31:55.905Z,31.03
2022-10-23T21:34:25.620Z,31.03
2022-10-23T21:39:43.887Z,30.92
2022-10-23T21:42:13.763Z,30.78
2022-10-23T21:44:41.733Z,30.56
2022-10-23T21:47:09.806Z,30.51
2022-10-23T21:49:38.302Z,30.54
2022-10-23T21:52:06.425Z,30.57
2022-10-23T21:54:34.417Z,30.52
2022-10-23T21:57:02.422Z,30.53
2022-10-23T21:59:33.160Z,30.49
2022-10-23T22:02:04.375Z,30.52
2022-10-23T22:04:32.785Z,30.58
2022-10-23T22:07:01.481Z,30.55
2022-10-23T22:09:29.768Z,30.52
2022-10-23T22:11:57.940Z,30.48
2022-10-23T22:14:27.239Z,30.48
2022-10-23T22:16:55.113Z,30.48
2022-10-23T22:19:23.394Z,30.52
2022-10-23T22:21:51.735Z,30.50
2022-10-23T22:24:20.321Z,30.49
2022-10-23T22:26:53.962Z,30.47
2022-10-23T22:29:26.425Z,30.44
2022-10-23T22:31:54.418Z,30.44
2022-10-23T22:34:51.441Z,30.46
2022-10-23T22:37:16.972Z,30.45
2022-10-23T22:39:44.837Z,30.45
2022-10-23T22:42:12.913Z,30.44
2022-10-23T22:44:40.990Z,30.44
2022-10-23T22:47:09.027Z,30.45
2022-10-23T22:49:37.347Z,30.48
2022-10-23T22:52:05.320Z,30.46
2022-10-23T22:54:33.908Z,30.52
2022-10-23T22:57:01.886Z,30.51
2022-10-23T22:59:30.265Z,30.49
2022-10-23T23:01:58.692Z,30.51
2022-10-23T23:04:37.289Z,30.47
2022-10-23T23:07:07.768Z,30.47
2022-10-23T23:09:40.376Z,30.48
2022-10-23T23:12:11.601Z,30.50
2022-10-23T23:14:40.108Z,30.50
2022-10-23T23:17:09.257Z,30.51
2022-10-23T23:19:37.489Z,30.49
2022-10-23T23:22:05.667Z,30.49
2022-10-23T23:24:33.951Z,30.53
2022-10-23T23:27:02.227Z,30.51
2022-10-23T23:29:33.199Z,30.50
2022-10-23T23:32:01.148Z,30.47
2022-10-23T23:34:29.527Z,30.47
2022-10-23T23:36:58.422Z,30.48
2022-10-23T23:39:26.540Z,30.48
2022-10-23T23:41:55.086Z,30.47
2022-10-23T23:44:23.060Z,30.44
2022-10-23T23:46:51.037Z,30.40
2022-10-23T23:49:19.108Z,30.39
2022-10-23T23:51:47.082Z,30.42
2022-10-23T23:54:15.290Z,30.38
2022-10-23T23:56:43.545Z,30.40
2022-10-23T23:59:11.514Z,30.39
